首页
METAR-TAF:

METAR-TAF

机场 :

易卜拉欣·納西爾國際機場

馬累, 马尔代夫

纬度: 04-12N, 经度: 073-32E, 海拔: 2米

当前天气观测

该预报发布于1小时和8分钟前的16:00 UTC
风速15节,风向东转东北
温度 28°C
湿度 70%
气压 1012 hPa
能見度: 6000
少量云层高于1800英尺
散云层高于28000英尺

METAR: VRMM 161600Z 07015KT 6000 FEW018 SCT280 28/22 Q1012 NOSIG

时间: 22:08 (17:08 UTC)

预报

该预报发布于6小时和8分钟前的11:00 UTC
预报有效从16日的 12点(UTC)到 17日的 18点(UTC)
风速13节,风向东转东北
能見度: 6000
少量云层高于1700英尺
短暂存在
从 16日的 14点(UTC)到 16日的 20点(UTC)
能見度: 5000
少量云层高于1800英尺, 积雨云.
小阵雨

TAF: VRMM 161100Z 1612/1718 06013KT 6000 FEW017 TEMPO 1614/1620 5000 -SHRA FEW018CB

超过4000个机场的气象观测和天气预报(METAR&TAF报告)。

可查询的气象台以黄色和红色小点在地图上表示。

将鼠标移到小点上方,可查看气象台名称。

然后点击查看天气观测和预报。

如需切换地图:点击带黑十字的绿色按钮放大地图;点击带横线的绿色按钮缩小地图;或者点击绿色箭头查看邻近地区的地图。


METAR-TAF: